Terminal Aerodrome Forecast
Issued by NWS Wilmington, OH

Current Version | Previous Version | Graphics & Text | Print | Product List | Glossary On
Versions: 1 2 3 4 5 6 7 8 9 10 11 12 13 14 15 16 17 18 19 20 21
339
FTUS41 KILN 211742
TAFCMH
TAF
KCMH 211742Z 2118/2218 12006KT P6SM SCT040
     FM212200 14006KT P6SM VCTS SCT040CB
     FM220100 16006KT P6SM VCTS BKN040CB
      TEMPO 2202/2205 4SM -TSRA BR BKN035CB
     FM220500 18004KT P6SM VCSH SCT040 BKN080
     FM220800 18004KT P6SM BKN035
     FM221400 23008KT P6SM SCT035=

USA.gov is the U.S. government's official web portal to all federal, state and local government web resources and services.